sensor_id;sensor_type;location;lat;lon;timestamp;temperature;humidity
1728;DHT22;861;48.808;9.006;2023-03-01T00:01:39;2.60;99.90
1728;DHT22;861;48.808;9.006;2023-03-01T00:04:06;2.80;99.90
1728;DHT22;861;48.808;9.006;2023-03-01T00:06:32;2.70;99.90
1728;DHT22;861;48.808;9.006;2023-03-01T00:08:58;2.80;99.90
1728;DHT22;861;48.808;9.006;2023-03-01T00:11:29;2.60;99.90
1728;DHT22;861;48.808;9.006;2023-03-01T00:14:01;2.70;99.90
1728;DHT22;861;48.808;9.006;2023-03-01T00:16:42;2.60;99.90
1728;DHT22;861;48.808;9.006;2023-03-01T00:19:18;2.40;99.90
1728;DHT22;861;48.808;9.006;2023-03-01T00:21:48;2.40;99.90
1728;DHT22;861;48.808;9.006;2023-03-01T00:24:15;2.50;99.90
1728;DHT22;861;48.808;9.006;2023-03-01T00:26:42;2.40;99.90
1728;DHT22;861;48.808;9.006;2023-03-01T00:29:08;2.30;99.90
1728;DHT22;861;48.808;9.006;2023-03-01T00:31:35;2.30;99.90
1728;DHT22;861;48.808;9.006;2023-03-01T00:34:05;2.40;99.90
1728;DHT22;861;48.808;9.006;2023-03-01T00:36:35;2.40;99.90
1728;DHT22;861;48.808;9.006;2023-03-01T00:39:07;2.40;99.90
1728;DHT22;861;48.808;9.006;2023-03-01T00:41:39;2.30;99.90
1728;DHT22;861;48.808;9.006;2023-03-01T00:44:06;2.20;99.90
1728;DHT22;861;48.808;9.006;2023-03-01T00:46:32;2.10;99.90
1728;DHT22;861;48.808;9.006;2023-03-01T00:48:59;2.20;99.90
1728;DHT22;861;48.808;9.006;2023-03-01T00:51:29;2.20;99.90
1728;DHT22;861;48.808;9.006;2023-03-01T00:54:00;2.40;99.90
1728;DHT22;861;48.808;9.006;2023-03-01T00:56:29;2.30;99.90
1728;DHT22;861;48.808;9.006;2023-03-01T00:58:56;2.20;99.90
1728;DHT22;861;48.808;9.006;2023-03-01T01:01:26;2.20;99.90
1728;DHT22;861;48.808;9.006;2023-03-01T01:04:01;2.10;99.90
1728;DHT22;861;48.808;9.006;2023-03-01T01:09:16;2.20;99.90
1728;DHT22;861;48.808;9.006;2023-03-01T01:11:49;2.10;99.90
1728;DHT22;861;48.808;9.006;2023-03-01T01:14:18;2.20;99.90
1728;DHT22;861;48.808;9.006;2023-03-01T01:16:44;2.00;99.90
1728;DHT22;861;48.808;9.006;2023-03-01T01:19:12;1.90;99.90
1728;DHT22;861;48.808;9.006;2023-03-01T01:21:40;2.00;99.90
1728;DHT22;861;48.808;9.006;2023-03-01T01:24:09;2.10;99.90
1728;DHT22;861;48.808;9.006;2023-03-01T01:26:35;2.00;99.90
1728;DHT22;861;48.808;9.006;2023-03-01T01:29:04;2.00;99.90
1728;DHT22;861;48.808;9.006;2023-03-01T01:31:34;1.80;99.90
1728;DHT22;861;48.808;9.006;2023-03-01T01:34:06;1.80;99.90
1728;DHT22;861;48.808;9.006;2023-03-01T01:36:38;1.80;99.90
1728;DHT22;861;48.808;9.006;2023-03-01T01:39:04;1.80;99.90
1728;DHT22;861;48.808;9.006;2023-03-01T01:41:31;1.80;99.90
1728;DHT22;861;48.808;9.006;2023-03-01T01:44:26;1.90;99.90
1728;DHT22;861;48.808;9.006;2023-03-01T01:47:03;1.90;99.90
1728;DHT22;861;48.808;9.006;2023-03-01T01:49:54;1.90;99.90
1728;DHT22;861;48.808;9.006;2023-03-01T01:52:37;1.80;99.90
1728;DHT22;861;48.808;9.006;2023-03-01T01:55:11;1.80;99.90
1728;DHT22;861;48.808;9.006;2023-03-01T01:57:55;1.90;99.90
1728;DHT22;861;48.808;9.006;2023-03-01T02:00:30;2.00;99.90
1728;DHT22;861;48.808;9.006;2023-03-01T02:03:06;2.00;99.90
1728;DHT22;861;48.808;9.006;2023-03-01T02:09:13;1.80;99.90
1728;DHT22;861;48.808;9.006;2023-03-01T02:11:44;1.90;99.90
1728;DHT22;861;48.808;9.006;2023-03-01T02:14:11;1.90;99.90
1728;DHT22;861;48.808;9.006;2023-03-01T02:16:37;1.90;99.90
1728;DHT22;861;48.808;9.006;2023-03-01T02:19:05;1.80;99.90
1728;DHT22;861;48.808;9.006;2023-03-01T02:22:02;1.90;99.90
1728;DHT22;861;48.808;9.006;2023-03-01T02:25:38;1.90;99.90
1728;DHT22;861;48.808;9.006;2023-03-01T02:30:57;1.80;99.90
1728;DHT22;861;48.808;9.006;2023-03-01T02:33:44;1.80;99.90
1728;DHT22;861;48.808;9.006;2023-03-01T02:36:24;1.60;99.90
1728;DHT22;861;48.808;9.006;2023-03-01T02:39:02;1.70;99.90
1728;DHT22;861;48.808;9.006;2023-03-01T02:41:37;1.70;99.90
1728;DHT22;861;48.808;9.006;2023-03-01T02:44:06;1.60;99.90
1728;DHT22;861;48.808;9.006;2023-03-01T02:46:32;1.70;99.90
1728;DHT22;861;48.808;9.006;2023-03-01T02:48:59;1.80;99.90
1728;DHT22;861;48.808;9.006;2023-03-01T02:55:11;1.90;99.90
1728;DHT22;861;48.808;9.006;2023-03-01T02:57:45;2.00;99.90
1728;DHT22;861;48.808;9.006;2023-03-01T03:00:26;2.10;99.90
1728;DHT22;861;48.808;9.006;2023-03-01T03:03:00;2.10;99.90
1728;DHT22;861;48.808;9.006;2023-03-01T03:05:30;2.20;99.90
1728;DHT22;861;48.808;9.006;2023-03-01T03:08:02;2.10;99.90
1728;DHT22;861;48.808;9.006;2023-03-01T03:10:33;2.10;99.90
1728;DHT22;861;48.808;9.006;2023-03-01T03:13:12;2.20;99.90
1728;DHT22;861;48.808;9.006;2023-03-01T03:15:42;2.20;99.90
1728;DHT22;861;48.808;9.006;2023-03-01T03:18:15;2.10;99.90
1728;DHT22;861;48.808;9.006;2023-03-01T03:20:44;2.00;99.90
1728;DHT22;861;48.808;9.006;2023-03-01T03:23:13;2.10;99.90
1728;DHT22;861;48.808;9.006;2023-03-01T03:25:39;1.90;99.90
1728;DHT22;861;48.808;9.006;2023-03-01T03:28:07;1.90;99.90
1728;DHT22;861;48.808;9.006;2023-03-01T03:30:39;2.00;99.90
1728;DHT22;861;48.808;9.006;2023-03-01T03:33:08;2.10;99.90
1728;DHT22;861;48.808;9.006;2023-03-01T03:35:47;2.10;99.90
1728;DHT22;861;48.808;9.006;2023-03-01T03:38:18;2.00;99.90
1728;DHT22;861;48.808;9.006;2023-03-01T03:40:52;2.00;99.90
1728;DHT22;861;48.808;9.006;2023-03-01T03:43:34;1.90;99.90
1728;DHT22;861;48.808;9.006;2023-03-01T03:46:04;2.00;99.90
1728;DHT22;861;48.808;9.006;2023-03-01T03:48:40;2.10;99.90
1728;DHT22;861;48.808;9.006;2023-03-01T03:51:14;2.20;99.90
1728;DHT22;861;48.808;9.006;2023-03-01T03:53:43;2.10;99.90
1728;DHT22;861;48.808;9.006;2023-03-01T03:56:11;2.20;99.90
1728;DHT22;861;48.808;9.006;2023-03-01T03:58:38;2.10;99.90
1728;DHT22;861;48.808;9.006;2023-03-01T04:01:05;2.10;99.90
1728;DHT22;861;48.808;9.006;2023-03-01T04:03:33;2.10;99.90
1728;DHT22;861;48.808;9.006;2023-03-01T04:06:03;2.20;99.90
1728;DHT22;861;48.808;9.006;2023-03-01T04:08:31;2.30;99.90
1728;DHT22;861;48.808;9.006;2023-03-01T04:11:02;2.30;99.90
1728;DHT22;861;48.808;9.006;2023-03-01T04:13:52;2.40;99.90
1728;DHT22;861;48.808;9.006;2023-03-01T04:16:23;2.50;99.90
1728;DHT22;861;48.808;9.006;2023-03-01T04:18:49;2.50;99.90
1728;DHT22;861;48.808;9.006;2023-03-01T04:21:16;2.50;99.90
1728;DHT22;861;48.808;9.006;2023-03-01T04:23:45;2.50;99.90
1728;DHT22;861;48.808;9.006;2023-03-01T04:26:12;2.50;99.90
1728;DHT22;861;48.808;9.006;2023-03-01T04:28:41;2.60;99.90
1728;DHT22;861;48.808;9.006;2023-03-01T04:31:19;2.60;99.90
1728;DHT22;861;48.808;9.006;2023-03-01T04:33:51;2.50;99.90
1728;DHT22;861;48.808;9.006;2023-03-01T04:36:25;2.40;99.90
1728;DHT22;861;48.808;9.006;2023-03-01T04:38:55;2.40;99.90
1728;DHT22;861;48.808;9.006;2023-03-01T04:41:24;2.50;99.90
1728;DHT22;861;48.808;9.006;2023-03-01T04:43:51;2.50;99.90
1728;DHT22;861;48.808;9.006;2023-03-01T04:46:20;2.50;99.90
1728;DHT22;861;48.808;9.006;2023-03-01T04:48:47;2.50;99.90
1728;DHT22;861;48.808;9.006;2023-03-01T04:51:15;2.60;99.90
1728;DHT22;861;48.808;9.006;2023-03-01T04:53:43;2.50;99.90
1728;DHT22;861;48.808;9.006;2023-03-01T04:56:10;2.50;99.90
1728;DHT22;861;48.808;9.006;2023-03-01T04:58:39;2.40;99.90
1728;DHT22;861;48.808;9.006;2023-03-01T05:01:12;2.50;99.90
1728;DHT22;861;48.808;9.006;2023-03-01T05:03:54;2.40;99.90
1728;DHT22;861;48.808;9.006;2023-03-01T05:06:21;2.30;99.90
1728;DHT22;861;48.808;9.006;2023-03-01T05:08:47;2.40;99.90
1728;DHT22;861;48.808;9.006;2023-03-01T05:11:14;2.40;99.90
1728;DHT22;861;48.808;9.006;2023-03-01T05:13:40;2.30;99.90
1728;DHT22;861;48.808;9.006;2023-03-01T05:16:08;2.30;99.90
1728;DHT22;861;48.808;9.006;2023-03-01T05:18:37;2.30;99.90
1728;DHT22;861;48.808;9.006;2023-03-01T05:21:08;2.40;99.90
1728;DHT22;861;48.808;9.006;2023-03-01T05:23:38;2.20;99.90
1728;DHT22;861;48.808;9.006;2023-03-01T05:26:07;2.40;99.90
1728;DHT22;861;48.808;9.006;2023-03-01T05:28:35;2.20;99.90
1728;DHT22;861;48.808;9.006;2023-03-01T05:31:01;2.30;99.90
1728;DHT22;861;48.808;9.006;2023-03-01T05:33:28;2.40;99.90
1728;DHT22;861;48.808;9.006;2023-03-01T05:35:54;2.50;99.90
1728;DHT22;861;48.808;9.006;2023-03-01T05:38:25;2.30;99.90
1728;DHT22;861;48.808;9.006;2023-03-01T05:40:51;2.40;99.90
1728;DHT22;861;48.808;9.006;2023-03-01T05:43:17;2.40;99.90
1728;DHT22;861;48.808;9.006;2023-03-01T05:45:45;2.50;99.90
1728;DHT22;861;48.808;9.006;2023-03-01T05:48:12;2.50;99.90
1728;DHT22;861;48.808;9.006;2023-03-01T05:50:44;2.50;99.90
1728;DHT22;861;48.808;9.006;2023-03-01T05:53:19;2.60;99.90
1728;DHT22;861;48.808;9.006;2023-03-01T05:55:48;2.40;99.90
1728;DHT22;861;48.808;9.006;2023-03-01T05:58:19;2.40;99.90
1728;DHT22;861;48.808;9.006;2023-03-01T06:00:48;2.40;99.90
1728;DHT22;861;48.808;9.006;2023-03-01T06:03:17;2.40;99.90
1728;DHT22;861;48.808;9.006;2023-03-01T06:05:44;2.20;99.90
1728;DHT22;861;48.808;9.006;2023-03-01T06:08:12;2.20;99.90
1728;DHT22;861;48.808;9.006;2023-03-01T06:10:40;2.00;99.90
1728;DHT22;861;48.808;9.006;2023-03-01T06:13:06;2.00;99.90
1728;DHT22;861;48.808;9.006;2023-03-01T06:15:39;2.10;99.90
1728;DHT22;861;48.808;9.006;2023-03-01T06:18:05;2.00;99.90
1728;DHT22;861;48.808;9.006;2023-03-01T06:20:31;2.10;99.90
1728;DHT22;861;48.808;9.006;2023-03-01T06:22:58;2.10;99.90
1728;DHT22;861;48.808;9.006;2023-03-01T06:25:26;1.80;99.90
1728;DHT22;861;48.808;9.006;2023-03-01T06:27:54;2.00;99.90
1728;DHT22;861;48.808;9.006;2023-03-01T06:30:23;1.90;99.90
1728;DHT22;861;48.808;9.006;2023-03-01T06:32:52;1.70;99.90
1728;DHT22;861;48.808;9.006;2023-03-01T06:35:27;1.70;99.90
1728;DHT22;861;48.808;9.006;2023-03-01T06:37:56;1.70;99.90
1728;DHT22;861;48.808;9.006;2023-03-01T06:40:25;1.80;99.90
1728;DHT22;861;48.808;9.006;2023-03-01T06:42:51;1.80;99.90
1728;DHT22;861;48.808;9.006;2023-03-01T06:45:20;1.80;99.90
1728;DHT22;861;48.808;9.006;2023-03-01T06:47:47;1.80;99.90
1728;DHT22;861;48.808;9.006;2023-03-01T06:50:15;1.70;99.90
1728;DHT22;861;48.808;9.006;2023-03-01T06:52:43;1.70;99.90
1728;DHT22;861;48.808;9.006;2023-03-01T06:55:12;1.80;99.90
1728;DHT22;861;48.808;9.006;2023-03-01T06:57:39;1.70;99.90
1728;DHT22;861;48.808;9.006;2023-03-01T07:00:06;1.70;99.90
1728;DHT22;861;48.808;9.006;2023-03-01T07:02:33;1.80;99.90
1728;DHT22;861;48.808;9.006;2023-03-01T07:05:00;1.80;99.90
1728;DHT22;861;48.808;9.006;2023-03-01T07:07:26;1.80;99.90
1728;DHT22;861;48.808;9.006;2023-03-01T07:09:52;1.70;99.90
1728;DHT22;861;48.808;9.006;2023-03-01T07:12:19;1.80;99.90
1728;DHT22;861;48.808;9.006;2023-03-01T07:14:45;1.70;99.90
1728;DHT22;861;48.808;9.006;2023-03-01T07:17:11;1.80;99.90
1728;DHT22;861;48.808;9.006;2023-03-01T07:19:37;1.80;99.90
1728;DHT22;861;48.808;9.006;2023-03-01T07:22:04;1.80;99.90
1728;DHT22;861;48.808;9.006;2023-03-01T07:24:33;1.80;99.90
1728;DHT22;861;48.808;9.006;2023-03-01T07:27:00;1.80;99.90
1728;DHT22;861;48.808;9.006;2023-03-01T07:29:26;1.70;99.90
1728;DHT22;861;48.808;9.006;2023-03-01T07:31:54;1.70;99.90
1728;DHT22;861;48.808;9.006;2023-03-01T07:34:20;1.80;99.90
1728;DHT22;861;48.808;9.006;2023-03-01T07:36:46;1.90;99.90
1728;DHT22;861;48.808;9.006;2023-03-01T07:39:13;1.90;99.90
1728;DHT22;861;48.808;9.006;2023-03-01T07:41:39;2.00;99.90
1728;DHT22;861;48.808;9.006;2023-03-01T07:44:05;2.20;99.90
1728;DHT22;861;48.808;9.006;2023-03-01T07:46:31;2.20;99.90
1728;DHT22;861;48.808;9.006;2023-03-01T07:48:59;2.20;99.90
1728;DHT22;861;48.808;9.006;2023-03-01T07:51:25;2.20;99.90
1728;DHT22;861;48.808;9.006;2023-03-01T07:53:51;2.20;99.90
1728;DHT22;861;48.808;9.006;2023-03-01T07:56:18;2.20;99.90
1728;DHT22;861;48.808;9.006;2023-03-01T07:58:45;2.40;99.90
1728;DHT22;861;48.808;9.006;2023-03-01T08:01:15;2.50;99.90
1728;DHT22;861;48.808;9.006;2023-03-01T08:03:45;2.50;99.90
1728;DHT22;861;48.808;9.006;2023-03-01T08:06:14;2.50;99.90
1728;DHT22;861;48.808;9.006;2023-03-01T08:08:43;2.50;99.90
1728;DHT22;861;48.808;9.006;2023-03-01T08:11:13;2.60;99.90
1728;DHT22;861;48.808;9.006;2023-03-01T08:13:41;2.80;99.90
1728;DHT22;861;48.808;9.006;2023-03-01T08:16:13;2.80;99.90
1728;DHT22;861;48.808;9.006;2023-03-01T08:18:42;2.80;99.90
1728;DHT22;861;48.808;9.006;2023-03-01T08:21:15;2.80;99.90
1728;DHT22;861;48.808;9.006;2023-03-01T08:23:44;2.60;99.90
1728;DHT22;861;48.808;9.006;2023-03-01T08:26:18;2.70;99.90
1728;DHT22;861;48.808;9.006;2023-03-01T08:28:48;3.00;99.90
1728;DHT22;861;48.808;9.006;2023-03-01T08:31:24;3.10;99.90
1728;DHT22;861;48.808;9.006;2023-03-01T08:34:01;3.20;99.90
1728;DHT22;861;48.808;9.006;2023-03-01T08:36:36;3.30;99.90
1728;DHT22;861;48.808;9.006;2023-03-01T08:39:08;3.30;99.90
1728;DHT22;861;48.808;9.006;2023-03-01T08:41:38;3.50;99.90
1728;DHT22;861;48.808;9.006;2023-03-01T08:44:07;3.60;99.90
1728;DHT22;861;48.808;9.006;2023-03-01T08:46:42;3.60;99.90
1728;DHT22;861;48.808;9.006;2023-03-01T08:49:13;3.60;99.90
1728;DHT22;861;48.808;9.006;2023-03-01T08:51:47;3.80;99.90
1728;DHT22;861;48.808;9.006;2023-03-01T08:54:18;3.90;99.90
1728;DHT22;861;48.808;9.006;2023-03-01T08:56:47;4.10;99.90
1728;DHT22;861;48.808;9.006;2023-03-01T08:59:16;4.30;99.90
1728;DHT22;861;48.808;9.006;2023-03-01T09:01:43;4.50;99.90
1728;DHT22;861;48.808;9.006;2023-03-01T09:04:12;4.60;99.90
1728;DHT22;861;48.808;9.006;2023-03-01T09:06:40;4.80;99.90
1728;DHT22;861;48.808;9.006;2023-03-01T09:09:06;4.80;99.90
1728;DHT22;861;48.808;9.006;2023-03-01T09:11:42;4.80;99.90
1728;DHT22;861;48.808;9.006;2023-03-01T09:14:12;4.80;99.90
1728;DHT22;861;48.808;9.006;2023-03-01T09:16:39;4.80;99.90
1728;DHT22;861;48.808;9.006;2023-03-01T09:19:05;4.90;99.90
1728;DHT22;861;48.808;9.006;2023-03-01T09:21:31;5.10;99.90
1728;DHT22;861;48.808;9.006;2023-03-01T09:23:58;5.40;99.90
1728;DHT22;861;48.808;9.006;2023-03-01T09:26:25;5.40;99.90
1728;DHT22;861;48.808;9.006;2023-03-01T09:28:55;5.60;99.90
1728;DHT22;861;48.808;9.006;2023-03-01T09:31:24;5.60;99.90
1728;DHT22;861;48.808;9.006;2023-03-01T09:33:53;5.80;99.90
1728;DHT22;861;48.808;9.006;2023-03-01T09:36:24;6.00;99.90
1728;DHT22;861;48.808;9.006;2023-03-01T09:38:53;5.90;99.90
1728;DHT22;861;48.808;9.006;2023-03-01T09:44:32;6.00;99.90
1728;DHT22;861;48.808;9.006;2023-03-01T09:47:24;6.20;99.90
1728;DHT22;861;48.808;9.006;2023-03-01T09:50:12;6.30;99.90
1728;DHT22;861;48.808;9.006;2023-03-01T09:52:53;6.40;99.90
1728;DHT22;861;48.808;9.006;2023-03-01T09:56:02;6.30;99.90
1728;DHT22;861;48.808;9.006;2023-03-01T10:02:41;6.70;99.90
1728;DHT22;861;48.808;9.006;2023-03-01T10:05:31;6.90;99.90
1728;DHT22;861;48.808;9.006;2023-03-01T10:08:56;7.00;99.90
1728;DHT22;861;48.808;9.006;2023-03-01T10:11:38;6.80;99.80
1728;DHT22;861;48.808;9.006;2023-03-01T10:14:35;6.80;99.80
1728;DHT22;861;48.808;9.006;2023-03-01T10:18:00;7.00;99.70
1728;DHT22;861;48.808;9.006;2023-03-01T10:20:53;7.30;99.50
1728;DHT22;861;48.808;9.006;2023-03-01T10:23:32;7.40;99.60
1728;DHT22;861;48.808;9.006;2023-03-01T10:26:33;7.70;99.90
1728;DHT22;861;48.808;9.006;2023-03-01T10:29:13;7.90;99.10
1728;DHT22;861;48.808;9.006;2023-03-01T10:31:51;8.10;98.20
1728;DHT22;861;48.808;9.006;2023-03-01T10:34:26;8.10;98.00
1728;DHT22;861;48.808;9.006;2023-03-01T10:37:10;8.30;98.10
1728;DHT22;861;48.808;9.006;2023-03-01T10:40:06;8.70;97.60
1728;DHT22;861;48.808;9.006;2023-03-01T10:42:48;8.70;97.90
1728;DHT22;861;48.808;9.006;2023-03-01T10:45:36;8.70;97.90
1728;DHT22;861;48.808;9.006;2023-03-01T10:48:22;8.90;96.40
1728;DHT22;861;48.808;9.006;2023-03-01T10:53:41;8.70;96.90
1728;DHT22;861;48.808;9.006;2023-03-01T10:56:15;9.10;96.50
1728;DHT22;861;48.808;9.006;2023-03-01T10:59:00;9.30;96.70
1728;DHT22;861;48.808;9.006;2023-03-01T11:01:33;9.30;96.30
1728;DHT22;861;48.808;9.006;2023-03-01T11:06:38;8.80;96.80
1728;DHT22;861;48.808;9.006;2023-03-01T11:09:24;9.20;95.80
1728;DHT22;861;48.808;9.006;2023-03-01T11:11:57;9.30;96.50
1728;DHT22;861;48.808;9.006;2023-03-01T11:14:47;9.50;96.10
1728;DHT22;861;48.808;9.006;2023-03-01T11:17:31;9.70;94.90
1728;DHT22;861;48.808;9.006;2023-03-01T11:29:51;10.30;92.70
1728;DHT22;861;48.808;9.006;2023-03-01T11:32:36;10.30;93.90
1728;DHT22;861;48.808;9.006;2023-03-01T11:35:20;10.40;93.50
1728;DHT22;861;48.808;9.006;2023-03-01T11:40:42;10.70;99.90
1728;DHT22;861;48.808;9.006;2023-03-01T11:50:02;11.00;95.00
1728;DHT22;861;48.808;9.006;2023-03-01T11:53:04;10.90;99.90
1728;DHT22;861;48.808;9.006;2023-03-01T12:06:29;11.50;91.80
1728;DHT22;861;48.808;9.006;2023-03-01T12:09:41;11.70;91.00
1728;DHT22;861;48.808;9.006;2023-03-01T12:13:08;11.90;90.30
1728;DHT22;861;48.808;9.006;2023-03-01T12:19:16;12.00;90.60
1728;DHT22;861;48.808;9.006;2023-03-01T12:22:31;12.00;87.70
1728;DHT22;861;48.808;9.006;2023-03-01T12:25:45;11.80;89.20
1728;DHT22;861;48.808;9.006;2023-03-01T12:38:49;11.70;89.20
1728;DHT22;861;48.808;9.006;2023-03-01T12:45:34;11.90;89.00
1728;DHT22;861;48.808;9.006;2023-03-01T12:51:56;11.90;89.80
1728;DHT22;861;48.808;9.006;2023-03-01T12:54:36;12.30;87.30
1728;DHT22;861;48.808;9.006;2023-03-01T12:57:37;12.30;88.20
1728;DHT22;861;48.808;9.006;2023-03-01T13:00:42;12.40;87.10
1728;DHT22;861;48.808;9.006;2023-03-01T13:07:03;12.30;85.20
1728;DHT22;861;48.808;9.006;2023-03-01T13:13:24;12.40;87.10
1728;DHT22;861;48.808;9.006;2023-03-01T13:15:53;12.60;86.80
1728;DHT22;861;48.808;9.006;2023-03-01T13:20:58;12.90;85.40
1728;DHT22;861;48.808;9.006;2023-03-01T13:23:35;12.90;86.20
1728;DHT22;861;48.808;9.006;2023-03-01T13:26:16;12.90;84.20
1728;DHT22;861;48.808;9.006;2023-03-01T13:47:17;12.40;83.80
1728;DHT22;861;48.808;9.006;2023-03-01T13:53:24;12.20;86.40
1728;DHT22;861;48.808;9.006;2023-03-01T13:56:07;12.20;87.00
1728;DHT22;861;48.808;9.006;2023-03-01T13:58:54;12.40;87.30
1728;DHT22;861;48.808;9.006;2023-03-01T14:01:35;12.40;86.50
1728;DHT22;861;48.808;9.006;2023-03-01T14:04:26;12.40;86.40
1728;DHT22;861;48.808;9.006;2023-03-01T14:07:22;12.20;85.00
1728;DHT22;861;48.808;9.006;2023-03-01T14:10:06;12.10;85.20
1728;DHT22;861;48.808;9.006;2023-03-01T14:13:08;12.00;87.20
1728;DHT22;861;48.808;9.006;2023-03-01T14:19:31;12.00;85.60
1728;DHT22;861;48.808;9.006;2023-03-01T14:22:24;11.60;86.90
1728;DHT22;861;48.808;9.006;2023-03-01T14:30:50;11.70;88.50
1728;DHT22;861;48.808;9.006;2023-03-01T14:33:36;12.00;88.50
1728;DHT22;861;48.808;9.006;2023-03-01T14:36:12;12.10;87.60
1728;DHT22;861;48.808;9.006;2023-03-01T14:38:47;12.20;86.50
1728;DHT22;861;48.808;9.006;2023-03-01T14:41:25;12.20;86.60
1728;DHT22;861;48.808;9.006;2023-03-01T14:44:03;12.40;85.90
1728;DHT22;861;48.808;9.006;2023-03-01T14:46:44;12.50;85.10
1728;DHT22;861;48.808;9.006;2023-03-01T14:49:25;12.30;84.60
1728;DHT22;861;48.808;9.006;2023-03-01T14:52:20;12.40;85.90
1728;DHT22;861;48.808;9.006;2023-03-01T14:54:54;12.70;86.50
1728;DHT22;861;48.808;9.006;2023-03-01T14:57:26;12.60;85.50
1728;DHT22;861;48.808;9.006;2023-03-01T14:59:58;12.70;85.40
1728;DHT22;861;48.808;9.006;2023-03-01T15:02:33;12.80;85.20
1728;DHT22;861;48.808;9.006;2023-03-01T15:05:04;12.90;85.20
1728;DHT22;861;48.808;9.006;2023-03-01T15:07:39;13.10;84.30
1728;DHT22;861;48.808;9.006;2023-03-01T15:10:29;13.10;82.90
1728;DHT22;861;48.808;9.006;2023-03-01T15:13:25;13.10;82.70
1728;DHT22;861;48.808;9.006;2023-03-01T15:16:06;13.10;83.50
1728;DHT22;861;48.808;9.006;2023-03-01T15:19:03;13.00;83.50
1728;DHT22;861;48.808;9.006;2023-03-01T15:21:38;12.80;81.70
1728;DHT22;861;48.808;9.006;2023-03-01T15:29:32;12.80;83.50
1728;DHT22;861;48.808;9.006;2023-03-01T15:32:36;12.70;83.70
1728;DHT22;861;48.808;9.006;2023-03-01T15:35:43;12.50;83.80
1728;DHT22;861;48.808;9.006;2023-03-01T15:38:56;12.20;83.90
1728;DHT22;861;48.808;9.006;2023-03-01T15:41:26;12.10;84.60
1728;DHT22;861;48.808;9.006;2023-03-01T15:43:59;11.90;85.00
1728;DHT22;861;48.808;9.006;2023-03-01T15:46:47;11.80;85.10
1728;DHT22;861;48.808;9.006;2023-03-01T15:49:41;11.60;85.70
1728;DHT22;861;48.808;9.006;2023-03-01T16:01:41;11.50;85.50
1728;DHT22;861;48.808;9.006;2023-03-01T16:05:00;11.50;86.90
1728;DHT22;861;48.808;9.006;2023-03-01T16:07:26;11.40;85.60
1728;DHT22;861;48.808;9.006;2023-03-01T16:09:53;11.30;86.10
1728;DHT22;861;48.808;9.006;2023-03-01T16:12:19;11.00;87.60
1728;DHT22;861;48.808;9.006;2023-03-01T16:14:46;11.00;86.90
1728;DHT22;861;48.808;9.006;2023-03-01T16:17:14;10.90;86.60
1728;DHT22;861;48.808;9.006;2023-03-01T16:19:41;10.90;87.00
1728;DHT22;861;48.808;9.006;2023-03-01T16:22:10;10.90;87.30
1728;DHT22;861;48.808;9.006;2023-03-01T16:24:36;10.80;86.20
1728;DHT22;861;48.808;9.006;2023-03-01T16:27:03;10.60;86.90
1728;DHT22;861;48.808;9.006;2023-03-01T16:29:29;10.40;88.00
1728;DHT22;861;48.808;9.006;2023-03-01T16:31:55;10.30;88.40
1728;DHT22;861;48.808;9.006;2023-03-01T16:34:22;10.10;87.70
1728;DHT22;861;48.808;9.006;2023-03-01T16:36:49;10.10;88.80
1728;DHT22;861;48.808;9.006;2023-03-01T16:39:49;10.00;88.70
1728;DHT22;861;48.808;9.006;2023-03-01T16:43:00;9.80;90.00
1728;DHT22;861;48.808;9.006;2023-03-01T16:45:33;9.50;90.30
1728;DHT22;861;48.808;9.006;2023-03-01T16:48:03;9.40;90.60
1728;DHT22;861;48.808;9.006;2023-03-01T16:50:29;9.20;90.80
1728;DHT22;861;48.808;9.006;2023-03-01T16:52:55;9.10;90.90
1728;DHT22;861;48.808;9.006;2023-03-01T16:55:22;9.00;90.90
1728;DHT22;861;48.808;9.006;2023-03-01T16:57:49;9.00;91.00
1728;DHT22;861;48.808;9.006;2023-03-01T17:00:16;9.00;91.10
1728;DHT22;861;48.808;9.006;2023-03-01T17:02:43;8.80;91.00
1728;DHT22;861;48.808;9.006;2023-03-01T17:05:10;8.60;91.80
1728;DHT22;861;48.808;9.006;2023-03-01T17:07:39;8.50;91.30
1728;DHT22;861;48.808;9.006;2023-03-01T17:10:10;8.60;91.50
1728;DHT22;861;48.808;9.006;2023-03-01T17:12:38;8.30;92.10
1728;DHT22;861;48.808;9.006;2023-03-01T17:15:06;8.20;92.10
1728;DHT22;861;48.808;9.006;2023-03-01T17:17:32;8.20;92.00
1728;DHT22;861;48.808;9.006;2023-03-01T17:20:00;8.30;92.50
1728;DHT22;861;48.808;9.006;2023-03-01T17:22:26;8.40;92.20
1728;DHT22;861;48.808;9.006;2023-03-01T17:24:52;8.20;92.00
1728;DHT22;861;48.808;9.006;2023-03-01T17:27:19;8.00;92.40
1728;DHT22;861;48.808;9.006;2023-03-01T17:29:45;7.90;92.60
1728;DHT22;861;48.808;9.006;2023-03-01T17:32:11;7.90;92.60
1728;DHT22;861;48.808;9.006;2023-03-01T17:34:38;7.90;93.10
1728;DHT22;861;48.808;9.006;2023-03-01T17:37:04;7.90;92.80
1728;DHT22;861;48.808;9.006;2023-03-01T17:39:30;7.90;92.90
1728;DHT22;861;48.808;9.006;2023-03-01T17:42:03;7.90;93.00
1728;DHT22;861;48.808;9.006;2023-03-01T17:44:32;7.70;93.10
1728;DHT22;861;48.808;9.006;2023-03-01T17:47:04;7.60;93.40
1728;DHT22;861;48.808;9.006;2023-03-01T17:49:31;7.50;93.10
1728;DHT22;861;48.808;9.006;2023-03-01T17:51:58;7.50;93.40
1728;DHT22;861;48.808;9.006;2023-03-01T17:54:25;7.60;93.30
1728;DHT22;861;48.808;9.006;2023-03-01T17:56:53;7.40;93.30
1728;DHT22;861;48.808;9.006;2023-03-01T17:59:20;7.30;93.50
1728;DHT22;861;48.808;9.006;2023-03-01T18:01:47;7.20;93.60
1728;DHT22;861;48.808;9.006;2023-03-01T18:04:13;7.30;93.80
1728;DHT22;861;48.808;9.006;2023-03-01T18:06:40;7.40;93.70
1728;DHT22;861;48.808;9.006;2023-03-01T18:09:07;7.40;93.50
1728;DHT22;861;48.808;9.006;2023-03-01T18:11:35;7.40;93.40
1728;DHT22;861;48.808;9.006;2023-03-01T18:14:02;7.50;93.50
1728;DHT22;861;48.808;9.006;2023-03-01T18:16:29;7.40;93.50
1728;DHT22;861;48.808;9.006;2023-03-01T18:18:57;7.40;93.70
1728;DHT22;861;48.808;9.006;2023-03-01T18:21:24;7.20;93.70
1728;DHT22;861;48.808;9.006;2023-03-01T18:23:53;7.20;93.90
1728;DHT22;861;48.808;9.006;2023-03-01T18:26:20;7.30;93.70
1728;DHT22;861;48.808;9.006;2023-03-01T18:28:51;7.30;93.80
1728;DHT22;861;48.808;9.006;2023-03-01T18:31:20;7.20;93.90
1728;DHT22;861;48.808;9.006;2023-03-01T18:33:51;7.20;93.90
1728;DHT22;861;48.808;9.006;2023-03-01T18:36:30;7.10;94.20
1728;DHT22;861;48.808;9.006;2023-03-01T18:39:03;7.10;94.10
1728;DHT22;861;48.808;9.006;2023-03-01T18:41:32;7.10;94.30
1728;DHT22;861;48.808;9.006;2023-03-01T18:44:03;7.00;94.30
1728;DHT22;861;48.808;9.006;2023-03-01T18:46:30;6.90;94.50
1728;DHT22;861;48.808;9.006;2023-03-01T18:48:56;7.00;94.50
1728;DHT22;861;48.808;9.006;2023-03-01T18:51:26;6.90;94.50
1728;DHT22;861;48.808;9.006;2023-03-01T18:53:55;6.90;94.60
1728;DHT22;861;48.808;9.006;2023-03-01T18:56:28;7.00;94.50
1728;DHT22;861;48.808;9.006;2023-03-01T18:58:57;7.00;94.60
1728;DHT22;861;48.808;9.006;2023-03-01T19:01:28;7.00;94.50
1728;DHT22;861;48.808;9.006;2023-03-01T19:03:57;6.90;94.70
1728;DHT22;861;48.808;9.006;2023-03-01T19:06:28;6.90;94.60
1728;DHT22;861;48.808;9.006;2023-03-01T19:08:59;6.90;94.60
1728;DHT22;861;48.808;9.006;2023-03-01T19:11:26;6.80;94.70
1728;DHT22;861;48.808;9.006;2023-03-01T19:13:56;6.80;94.60
1728;DHT22;861;48.808;9.006;2023-03-01T19:16:27;6.90;94.60
1728;DHT22;861;48.808;9.006;2023-03-01T19:19:01;6.90;94.60
1728;DHT22;861;48.808;9.006;2023-03-01T19:21:31;6.80;94.70
1728;DHT22;861;48.808;9.006;2023-03-01T19:23:59;6.80;94.60
1728;DHT22;861;48.808;9.006;2023-03-01T19:26:30;6.80;94.70
1728;DHT22;861;48.808;9.006;2023-03-01T19:28:57;6.60;94.70